Latest Weather Observations for kunanyi / Mount Wellington

IDT60901

Issued at 8:01 am EDT Friday 23 February 2024 (issued every 10 minutes, with the page automatically refreshed every 10 minutes)

About weather observations | Map of Hobart area stations | Latest observations for Hobart area | Other Formats
Station Details ID: 094087 Name: KUNANYI (MOUNT WELLINGTON PINNACLE) Lat: -42.90 Lon: 147.24 Height: 1260.47 m
Data from the previous 72 hours. | See also: Recent months at kunanyi / Mount Wellington
Date/Time
EDT
Temp
°C
App
Temp
°C
Dew
Point
°C
Rel
Hum
%
Delta-T
°C
Wind Press
QNH
hPa
Press
MSL
hPa
Rain since
9am
mm
Dir  Spd
km/h
Gust
km/h
Spd
kts
Gust
kts
23/08:00am 6.0 -5.5 4.6 91 0.7 WSW 54 72 29 39 - - 0.0
23/07:35am 5.8 -4.9 4.6 92 0.6 W 50 69 27 37 - - 0.0
23/07:30am 5.8 -5.3 4.6 92 0.6 W 52 69 28 37 - - 0.0
23/07:00am 5.8 -4.1 4.8 93 0.5 WSW 46 69 25 37 - - 0.0
23/06:30am 6.0 -2.9 5.0 93 0.5 WSW 41 67 22 36 - - 0.0
23/06:00am 6.1 -3.5 4.6 90 0.7 WSW 44 72 24 39 - - 0.0
23/05:30am 6.4 -3.5 4.9 90 0.7 WSW 46 67 25 36 - - 0.0
23/05:05am 6.2 -3.8 4.5 89 0.8 W 46 70 25 38 - - 0.0
23/05:00am 6.2 -3.8 4.5 89 0.8 W 46 65 25 35 - - 0.0
23/04:30am 6.1 -4.4 3.8 85 1.1 WSW 48 70 26 38 - - 0.0
23/04:05am 6.2 -2.1 4.2 87 0.9 W 37 61 20 33 - - 0.0
23/04:00am 6.2 -2.5 4.2 87 0.9 W 39 56 21 30 - - 0.0
23/03:30am 6.5 -3.9 4.3 86 1.0 W 48 70 26 38 - - 0.0
23/03:14am 6.6 -2.4 4.4 86 1.0 W 41 61 22 33 - - 0.0
23/03:00am 6.7 -1.9 4.7 87 0.9 W 39 56 21 30 - - 0.0
23/02:30am 6.9 -0.8 5.4 90 0.7 W 35 52 19 28 - - 0.0
23/02:28am 6.8 -0.9 5.3 90 0.7 W 35 54 19 29 - - 0.0
23/02:00am 7.2 -1.6 5.7 90 0.7 W 41 54 22 29 - - 0.0
23/01:30am 7.9 0.7 6.0 88 0.9 W 33 43 18 23 - - 0.0
23/01:16am 9.1 1.3 4.9 75 2.0 WNW 35 54 19 29 - - 0.0
23/01:00am 9.4 0.2 6.3 81 1.5 NW 44 59 24 32 - - 0.0
23/12:39am 10.3 -0.6 5.7 73 2.3 NW 52 72 28 39 - - 0.0
23/12:30am 10.6 0.1 5.8 72 2.4 WNW 50 61 27 33 - - 0.0
23/12:16am 10.7 1.3 7.2 79 1.8 WNW 46 65 25 35 - - 0.0
23/12:00am 11.6 1.7 6.5 71 2.6 NW 48 63 26 34 - - 0.0
 
Date/Time
EDT
Temp
°C
App
Temp
°C
Dew
Point
°C
Rel
Hum
%
Delta-T
°C
Wind Press
QNH
hPa
Press
MSL
hPa
Rain since
9am
mm
Dir  Spd
km/h
Gust
km/h
Spd
kts
Gust
kts
22/11:30pm 12.6 2.5 8.9 78 2.0 NW 52 70 28 38 - - 0.0
22/11:14pm 12.6 2.6 9.2 80 1.8 NW 52 72 28 39 - - 0.0
22/11:00pm 12.7 3.4 9.2 79 1.9 NW 48 61 26 33 - - 0.0
22/10:30pm 14.0 6.1 9.4 74 2.5 NW 41 54 22 29 - - 0.0
22/10:11pm 15.0 6.5 9.4 69 3.1 NNW 44 63 24 34 - - 0.0
22/10:00pm 15.1 7.2 9.5 69 3.1 NW 41 54 22 29 - - 0.0
22/09:30pm 15.9 9.7 10.2 69 3.2 NW 33 43 18 23 - - 0.0
22/09:00pm 17.3 13.8 10.2 63 4.0 NNW 19 28 10 15 - - 0.0
22/08:35pm 17.8 12.5 9.9 60 4.5 NNW 28 46 15 25 - - 0.0
22/08:30pm 17.9 11.9 10.0 60 4.5 NNW 32 46 17 25 - - 0.0
22/08:00pm 18.5 12.0 10.3 59 4.7 NNW 35 54 19 29 - - 0.0
22/07:30pm 19.4 11.7 10.1 55 5.3 N 41 59 22 32 - - 0.0
22/07:00pm 20.4 15.4 11.1 55 5.4 NNW 28 50 15 27 - - 0.0
22/06:30pm 20.8 13.3 10.9 53 5.8 NNW 41 78 22 42 - - 0.0
22/06:00pm 21.6 13.1 10.7 50 6.3 NNW 46 83 25 45 - - 0.0
22/05:53pm 21.8 13.4 11.2 51 6.2 NNW 46 83 25 45 - - 0.0
22/05:32pm 21.6 15.3 12.2 55 5.6 N 37 57 20 31 - - 0.0
22/05:30pm 21.4 14.6 12.0 55 5.6 N 39 57 21 31 - - 0.0
22/05:00pm 22.4 14.3 12.1 52 6.2 N 46 72 25 39 - - 0.0
22/04:30pm 22.8 15.1 12.1 51 6.4 N 44 80 24 43 - - 0.0
22/04:00pm 23.5 15.0 10.6 44 7.6 NNW 46 78 25 42 - - 0.0
22/03:30pm 24.1 15.3 11.1 44 7.7 NNW 48 91 26 49 - - 0.0
22/03:21pm 23.4 14.3 11.1 46 7.3 NNW 50 91 27 49 - - 0.0
22/03:00pm 23.8 14.9 11.8 47 7.2 NNW 50 80 27 43 - - 0.0
22/02:30pm 23.4 13.1 11.1 46 7.3 N 56 82 30 44 - - 0.0
22/02:00pm 22.6 11.3 10.7 47 7.0 NNW 61 91 33 49 - - 0.0
22/01:30pm 21.8 8.8 10.3 48 6.7 NNW 69 96 37 52 - - 0.0
22/01:00pm 20.8 8.7 10.6 52 5.9 NNW 65 91 35 49 - - 0.0
22/12:30pm 19.8 7.8 11.0 57 5.1 NNW 65 87 35 47 - - 0.0
22/12:00pm 18.8 7.5 10.9 60 4.6 NNW 61 85 33 46 - - 0.0
22/11:30am 16.4 5.4 10.7 69 3.2 NNW 59 83 32 45 - - 0.0
22/11:15am 16.4 4.7 10.9 70 3.1 NNW 63 82 34 44 - - 0.0
22/11:00am 16.0 3.1 10.7 71 3.0 NNW 69 87 37 47 - - 0.0
22/10:35am 15.5 3.1 10.9 74 2.6 NNW 67 85 36 46 - - 0.0
22/10:30am 15.5 3.0 10.7 73 2.7 NNW 67 80 36 43 - - 0.0
22/10:03am 16.2 3.1 10.5 69 3.2 NNW 70 93 38 50 - - 0.0
22/10:00am 16.0 3.1 10.7 71 3.0 NW 69 83 37 45 - - 0.0
22/09:30am 15.4 3.7 10.8 74 2.6 NW 63 83 34 45 - - 0.0
22/09:03am 15.2 3.2 11.0 76 2.4 NW 65 83 35 45 - - 0.0
22/09:00am 15.1 3.1 10.9 76 2.4 NW 65 80 35 43 - - 0.2
22/08:33am 14.8 2.4 11.0 78 2.2 NW 67 85 36 46 - - 0.2
22/08:30am 14.7 2.6 10.7 77 2.3 NW 65 83 35 45 - - 0.2
22/08:00am 14.6 2.6 11.2 80 1.9 NW 65 85 35 46 - - 0.2
22/07:36am 14.1 3.0 11.4 84 1.5 NW 61 82 33 44 - - 0.2
22/07:30am 13.9 2.8 11.4 85 1.4 NW 61 78 33 42 - - 0.2
22/07:00am 13.6 2.8 11.3 86 1.3 NW 59 82 32 44 - - 0.2
22/06:51am 13.3 2.9 11.5 89 1.0 NW 57 78 31 42 - - 0.2
22/06:30am 13.1 2.7 11.5 90 0.9 NW 57 70 31 38 - - 0.2
22/06:00am 13.0 1.5 11.4 90 0.9 NW 63 74 34 40 - - 0.2
22/05:30am 12.6 2.3 11.7 94 0.5 NW 57 76 31 41 - - 0.2
22/05:13am 12.6 2.3 11.8 95 0.5 NW 57 76 31 41 - - 0.2
22/05:00am 12.5 2.8 11.7 95 0.5 NW 54 65 29 35 - - 0.2
22/04:30am 12.5 2.8 11.9 96 0.3 NW 54 65 29 35 - - 0.2
22/04:00am 12.7 3.4 11.9 95 0.5 NW 52 63 28 34 - - 0.2
22/03:30am 12.7 4.2 11.9 95 0.5 NW 48 59 26 32 - - 0.2
22/03:00am 12.7 4.9 11.9 95 0.5 NW 44 57 24 31 - - 0.2
22/02:30am 12.7 5.6 12.1 96 0.3 NW 41 57 22 31 - - 0.2
22/02:00am 12.7 6.3 12.1 96 0.3 NW 37 46 20 25 - - 0.2
22/01:30am 12.8 4.3 11.9 94 0.5 NW 48 61 26 33 - - 0.2
22/01:00am 13.1 3.7 11.5 90 0.9 NW 52 65 28 35 - - 0.2
22/12:30am 13.2 3.8 11.6 90 0.9 NW 52 69 28 37 - - 0.2
22/12:00am 13.2 4.1 11.4 89 1.0 NW 50 65 27 35 - - 0.2
 
Date/Time
EDT
Temp
°C
App
Temp
°C
Dew
Point
°C
Rel
Hum
%
Delta-T
°C
Wind Press
QNH
hPa
Press
MSL
hPa
Rain since
9am
mm
Dir  Spd
km/h
Gust
km/h
Spd
kts
Gust
kts
21/11:30pm 13.9 4.7 10.9 82 1.7 NW 50 63 27 34 - - 0.2
21/11:00pm 14.3 5.8 10.7 79 2.0 NW 46 57 25 31 - - 0.2
21/10:30pm 14.5 6.7 11.1 80 1.9 NW 43 54 23 29 - - 0.2
21/10:00pm 15.0 8.1 11.6 80 1.9 NW 39 50 21 27 - - 0.2
21/09:30pm 14.9 8.8 11.9 82 1.7 NNW 35 44 19 24 - - 0.2
21/09:00pm 15.4 9.7 11.8 79 2.1 NNW 33 44 18 24 - - 0.2
21/08:50pm 15.6 9.9 11.8 78 2.2 NNW 33 54 18 29 - - 0.2
21/08:30pm 15.9 10.2 11.9 77 2.3 NNW 33 46 18 25 - - 0.2
21/08:00pm 16.3 10.9 12.1 76 2.4 N 32 44 17 24 - - 0.2
21/07:30pm 17.0 11.5 11.9 72 3.0 N 32 46 17 25 - - 0.2
21/07:00pm 18.0 12.3 11.1 64 4.0 N 32 50 17 27 - - 0.2
21/06:30pm 18.0 12.2 10.9 63 4.1 N 32 50 17 27 - - 0.2
21/06:03pm 18.7 13.1 10.3 58 4.8 N 30 50 16 27 - - 0.2
21/06:00pm 18.9 14.1 11.5 62 4.3 N 28 46 15 25 - - 0.2
21/05:51pm 18.4 13.4 10.8 61 4.4 N 28 46 15 25 - - 0.2
21/05:30pm 18.3 12.9 10.9 62 4.3 N 30 43 16 23 - - 0.2
21/05:00pm 18.7 14.1 12.2 66 3.8 NNE 28 39 15 21 - - 0.2
21/04:30pm 18.5 14.6 12.0 66 3.8 N 24 33 13 18 - - 0.2
21/04:00pm 18.1 13.8 11.9 67 3.6 N 26 39 14 21 - - 0.2
21/03:30pm 18.8 15.0 12.5 67 3.7 N 24 39 13 21 - - 0.2
21/03:00pm 17.9 14.3 11.7 67 3.6 NNE 22 37 12 20 - - 0.2
21/02:30pm 16.7 13.2 12.3 75 2.6 NNE 22 33 12 18 - - 0.2
21/02:00pm 17.5 14.5 12.6 73 2.9 N 20 39 11 21 - - 0.2
21/01:30pm 15.6 11.3 12.2 80 2.0 NNE 26 44 14 24 - - 0.2
21/01:00pm 15.2 10.6 12.3 83 1.7 N 28 44 15 24 - - 0.2
21/12:30pm 14.3 10.3 14.0 98 0.2 N 28 43 15 23 - - 0.2
21/12:00pm 13.3 9.4 13.3 100 0.0 N 26 43 14 23 - - 0.2
21/11:30am 13.0 7.7 13.0 100 0.0 N 33 46 18 25 - - 0.2
21/11:00am 12.3 5.6 12.3 100 0.0 N 39 54 21 29 - - 0.2
21/10:30am 11.8 5.0 11.8 100 0.0 N 39 52 21 28 - - 0.2
21/10:00am 11.2 3.8 11.2 100 0.0 N 41 52 22 28 - - 0.2
21/09:30am 11.0 3.9 11.0 100 0.0 N 39 54 21 29 - - 0.0
21/09:00am 10.9 3.4 10.9 100 0.0 N 41 50 22 27 - - 1.0
21/08:30am 10.8 3.3 10.8 100 0.0 N 41 50 22 27 - - 0.8
21/08:00am 10.6 3.8 10.6 100 0.0 N 37 46 20 25 - - 0.8
21/07:30am 10.5 3.7 10.5 100 0.0 N 37 46 20 25 - - 0.6
21/07:00am 10.5 3.7 10.5 100 0.0 N 37 43 20 23 - - 0.6
21/06:30am 10.4 4.5 10.4 100 0.0 N 32 39 17 21 - - 0.6
21/06:00am 10.2 4.0 10.2 100 0.0 N 33 41 18 22 - - 0.6
21/05:30am 10.2 3.3 10.2 100 0.0 NNW 37 46 20 25 - - 0.4
21/05:00am 10.2 3.3 10.2 100 0.0 N 37 46 20 25 - - 0.4
21/04:31am 10.1 3.5 10.1 100 0.0 N 35 54 19 29 - - 0.4
21/04:30am 10.1 3.1 10.1 100 0.0 N 37 54 20 29 - - 0.4
21/04:00am 10.3 3.3 10.1 99 0.1 N 37 52 20 28 - - 0.2
21/03:30am 10.6 3.4 10.4 99 0.1 N 39 52 21 28 - - 0.2
21/03:00am 10.5 3.6 10.3 99 0.1 N 37 50 20 27 - - 0.2
21/02:30am 10.6 3.4 10.4 99 0.1 N 39 54 21 29 - - 0.0
21/02:00am 10.2 4.2 10.1 99 0.1 N 32 39 17 21 - - 0.0
21/01:30am 10.2 5.7 9.9 98 0.2 N 24 35 13 19 - - 0.0
21/01:00am 10.3 6.4 9.5 95 0.4 N 20 28 11 15 - - 0.0
21/12:30am 10.2 5.8 9.0 92 0.6 N 22 28 12 15 - - 0.0
21/12:00am 9.7 6.2 8.6 93 0.6 N 17 22 9 12 - - 0.0
 
Date/Time
EDT
Temp
°C
App
Temp
°C
Dew
Point
°C
Rel
Hum
%
Delta-T
°C
Wind Press
QNH
hPa
Press
MSL
hPa
Rain since
9am
mm
Dir  Spd
km/h
Gust
km/h
Spd
kts
Gust
kts
20/11:30pm 10.4 6.5 8.8 90 0.8 N 19 24 10 13 - - 0.0
20/11:00pm 10.2 6.6 8.5 89 0.9 NNE 17 20 9 11 - - 0.0
20/10:30pm 10.4 7.6 8.5 88 1.0 NNE 13 17 7 9 - - 0.0
20/10:00pm 10.1 7.6 8.4 89 0.9 NNE 11 15 6 8 - - 0.0
20/09:30pm 10.2 8.1 8.3 88 1.0 NE 9 13 5 7 - - 0.0
20/09:00pm 10.4 8.4 8.7 89 0.9 NE 9 13 5 7 - - 0.0
20/08:30pm 10.5 8.5 8.6 88 1.0 NE 9 13 5 7 - - 0.0
20/08:00pm 10.8 8.5 8.9 88 1.0 NNE 11 17 6 9 - - 0.0
20/07:30pm 10.7 8.4 9.1 90 0.9 ENE 11 15 6 8 - - 0.0
20/07:00pm 10.6 8.3 9.0 90 0.9 NE 11 15 6 8 - - 0.0
20/06:30pm 11.9 10.1 9.6 86 1.2 E 9 13 5 7 - - 0.0
20/06:00pm 12.2 10.9 9.9 86 1.3 E 7 13 4 7 - - 0.0
20/05:30pm 11.5 9.4 9.8 89 0.9 ESE 11 17 6 9 - - 0.0
20/05:00pm 12.4 11.2 10.3 87 1.2 E 7 11 4 6 - - 0.0
20/04:30pm 12.2 11.0 10.3 88 1.0 E 7 13 4 7 - - 0.0
20/04:00pm 11.5 10.2 9.9 90 0.9 ESE 7 13 4 7 - - 0.0
20/03:30pm 11.8 10.1 10.0 89 1.0 E 9 17 5 9 - - 0.0
20/03:00pm 12.6 11.6 10.3 86 1.3 E 6 13 3 7 - - 0.0
20/02:30pm 12.7 11.7 10.2 85 1.4 NNE 6 15 3 8 - - 0.0
20/02:00pm 11.6 9.4 9.3 86 1.2 NNE 11 15 6 8 - - 0.0
20/01:30pm 11.2 9.0 9.5 89 0.9 N 11 17 6 9 - - 0.0
20/01:00pm 11.5 9.8 9.8 89 0.9 N 9 15 5 8 - - 0.0
20/12:30pm 11.1 8.9 9.4 89 0.9 N 11 19 6 10 - - 0.0
20/12:00pm 11.9 10.3 10.1 89 1.0 N 9 13 5 7 - - 0.0
20/11:30am 11.3 9.9 9.7 90 0.9 N 7 15 4 8 - - 0.0
20/11:00am 11.8 10.1 9.7 87 1.1 N 9 15 5 8 - - 0.0
20/10:30am 11.5 9.4 9.8 89 0.9 NNE 11 15 6 8 - - 0.0
20/10:00am 11.5 9.8 9.9 90 0.9 N 9 15 5 8 - - 0.0
20/09:30am 10.9 9.5 9.7 92 0.6 N 7 13 4 7 - - 0.0
20/09:00am 10.7 9.7 10.2 97 0.3 N 6 9 3 5 - - 0.4
20/08:30am 10.8 9.8 10.3 97 0.3 NNW 6 7 3 4 - - 0.4

Latest Capital City Observations: Canberra | Sydney | Melbourne | Brisbane | Adelaide | Perth | Hobart | Darwin

Other formats

Comma delimited format used in spreadsheet applications
http://www.bom.gov.au/fwo/IDT60901/IDT60901.95979.axf

JavaScript Object Notation format (JSON) in row-major order
http://www.bom.gov.au/fwo/IDT60901/IDT60901.95979.json

Data quality

Most of these data are generated automatically and are frequently updated. Quality checks on data are not normally performed. It is possible for incorrect values to appear. Refer to information at About Latest Weather Observations and please check the disclaimer before using these data.